createdAt,value
2023-03-13T09:35:50.884Z,142259.50
2023-03-13T09:41:05.782Z,142276.81
2023-03-13T09:46:14.424Z,142259.50
2023-03-13T09:51:20.386Z,142269.41
2023-03-13T09:56:25.893Z,142264.47
2023-03-13T10:01:31.307Z,142299.09
2023-03-13T10:06:39.998Z,142286.69
2023-03-13T10:11:47.357Z,142291.63
2023-03-13T10:16:54.353Z,142354.75
2023-03-13T10:22:04.398Z,142400.47
2023-03-13T10:27:16.356Z,142457.38
2023-03-13T10:32:20.867Z,142532.88
2023-03-13T10:37:29.842Z,142584.84
2023-03-13T10:42:37.809Z,142640.56
2023-03-13T10:47:41.184Z,142723.53
2023-03-13T10:52:47.593Z,142775.56
2023-03-13T10:57:56.278Z,142849.88
2023-03-13T11:02:59.830Z,142896.97
2023-03-13T11:08:13.723Z,142982.50
2023-03-13T11:13:36.400Z,143068.06
2023-03-13T11:18:43.883Z,143090.38
2023-03-13T11:23:52.131Z,143115.19
2023-03-13T11:28:59.591Z,143175.97
2023-03-13T11:34:07.562Z,143220.59
2023-03-13T11:39:35.900Z,143210.69
2023-03-13T11:44:48.049Z,143265.28
2023-03-13T11:50:09.666Z,143260.34
2023-03-13T11:55:36.342Z,143310.00
2023-03-13T12:00:49.428Z,143327.34
2023-03-13T12:05:54.414Z,143424.22
2023-03-13T12:11:08.410Z,143444.03
2023-03-13T12:16:16.340Z,143545.91
2023-03-13T12:21:26.759Z,143579.44
2023-03-13T12:27:06.557Z,143559.53
2023-03-13T12:32:46.708Z,143517.34
2023-03-13T12:37:55.501Z,143491.25
2023-03-13T12:43:05.172Z,143492.47
2023-03-13T12:48:22.270Z,143548.38
2023-03-13T12:53:42.998Z,143596.84
2023-03-13T12:58:49.386Z,143682.59
2023-03-13T13:03:55.006Z,143788.25
2023-03-13T13:09:07.852Z,143803.16
2023-03-13T13:14:31.190Z,143782.00
2023-03-13T13:19:45.142Z,143903.91
2023-03-13T13:24:52.642Z,143867.81
2023-03-13T13:29:57.214Z,143854.16
2023-03-13T13:35:06.463Z,143844.16
2023-03-13T13:40:33.744Z,143805.63
2023-03-13T13:45:39.101Z,143835.47
2023-03-13T13:51:05.847Z,143861.59
2023-03-13T13:56:29.065Z,143925.00
2023-03-13T14:01:34.687Z,143887.72
2023-03-13T14:06:38.999Z,143901.44
2023-03-13T14:11:42.378Z,143928.75
2023-03-13T14:16:47.883Z,143865.31
2023-03-13T14:21:51.249Z,143908.88
2023-03-13T14:26:54.556Z,143916.31
2023-03-13T14:31:59.614Z,143983.47
2023-03-13T14:37:17.697Z,143930.03
2023-03-13T14:42:21.424Z,143895.16
2023-03-13T14:47:27.061Z,143943.69
2023-03-13T14:52:31.280Z,143935.00
2023-03-13T14:57:37.342Z,143923.78
2023-03-13T15:02:44.328Z,143926.25
2023-03-13T15:07:49.527Z,143948.66
2023-03-13T15:12:53.264Z,143942.44
2023-03-13T15:17:59.022Z,143931.28
2023-03-13T15:23:02.608Z,143954.88
2023-03-13T15:28:14.763Z,143885.22
2023-03-13T15:33:20.747Z,143815.56
2023-03-13T15:38:25.612Z,143753.41
2023-03-13T15:43:29.104Z,143758.38
2023-03-13T15:48:33.972Z,143693.75
2023-03-13T15:53:39.364Z,143699.97
2023-03-13T15:58:43.111Z,143671.38
2023-03-13T16:03:48.154Z,143661.44
2023-03-13T16:08:51.624Z,143677.63
2023-03-13T16:13:55.507Z,143680.09
2023-03-13T16:19:01.070Z,143657.72
2023-03-13T16:24:04.579Z,143621.72
2023-03-13T16:29:08.042Z,143605.53
2023-03-13T16:34:12.828Z,143594.38
2023-03-13T16:39:16.935Z,143576.94
2023-03-13T16:44:20.789Z,143519.81
2023-03-13T16:49:25.680Z,143512.38
2023-03-13T16:54:28.979Z,143514.84
2023-03-13T16:59:32.368Z,143523.53
2023-03-13T17:04:37.296Z,143503.66
2023-03-13T17:09:43.046Z,143521.06
2023-03-13T17:14:46.981Z,143516.09
2023-03-13T17:19:57.524Z,143496.22
2023-03-13T17:25:01.136Z,143471.38
2023-03-13T17:30:05.721Z,143452.75
2023-03-13T17:40:37.446Z,143408.03
2023-03-13T17:45:48.425Z,143385.69
2023-03-13T17:50:54.176Z,143372.06
2023-03-13T17:55:57.773Z,143337.31
2023-03-13T18:01:01.223Z,143324.88
2023-03-13T18:06:17.137Z,143322.38
2023-03-13T18:11:22.080Z,143300.03
2023-03-13T18:16:27.317Z,143292.59
2023-03-13T18:21:32.689Z,143305.00
2023-03-13T18:26:38.105Z,143291.38
2023-03-13T18:31:43.762Z,143303.75
2023-03-13T18:36:49.211Z,143265.28
2023-03-13T18:41:53.494Z,143260.34
2023-03-13T18:46:56.845Z,143270.25
2023-03-13T18:52:02.008Z,143250.38
2023-03-13T18:57:12.748Z,143233.03
2023-03-13T19:02:16.657Z,143239.22
2023-03-13T19:07:25.525Z,143234.28
2023-03-13T19:12:29.219Z,143246.66
2023-03-13T19:17:32.606Z,143233.03
2023-03-13T19:22:39.891Z,143249.16
2023-03-13T19:27:43.253Z,143259.09
2023-03-13T19:32:46.657Z,143245.44
2023-03-13T19:37:51.852Z,143239.22
2023-03-13T19:42:55.251Z,143241.72
2023-03-13T19:48:00.746Z,143231.81
2023-03-13T19:53:05.530Z,143199.53
2023-03-13T19:58:12.790Z,143200.78
2023-03-13T20:03:16.156Z,143169.78
2023-03-13T20:08:20.857Z,143159.81
2023-03-13T20:13:24.331Z,143157.34
2023-03-13T20:18:27.998Z,143148.69
2023-03-13T20:23:32.938Z,143137.47
2023-03-13T20:28:36.616Z,143126.34
2023-03-13T20:33:41.431Z,143111.47
2023-03-13T20:38:46.444Z,143105.25
2023-03-13T20:43:50.167Z,143102.75
2023-03-13T20:48:53.698Z,143084.19
2023-03-13T20:53:58.638Z,143091.63
2023-03-13T20:59:02.059Z,143089.16
2023-03-13T21:04:06.374Z,143074.25
2023-03-13T21:09:11.197Z,143074.25
2023-03-13T21:14:14.549Z,143070.53
2023-03-13T21:19:18.081Z,143076.72
2023-03-13T21:24:22.981Z,143080.44
2023-03-13T21:29:26.436Z,143076.72
2023-03-13T21:34:29.901Z,143082.94
2023-03-13T21:39:34.734Z,143087.91
2023-03-13T21:44:40.808Z,143080.44
2023-03-13T21:49:46.425Z,143081.72
2023-03-13T21:54:53.609Z,143060.63
2023-03-13T21:59:57.221Z,143054.44
2023-03-13T22:05:00.577Z,143011.00
2023-03-13T22:10:05.827Z,143012.25
2023-03-13T22:15:10.013Z,143022.16
2023-03-13T22:20:13.739Z,143032.09
2023-03-13T22:25:18.555Z,143018.44
2023-03-13T22:30:22.000Z,143037.06
2023-03-13T22:35:25.427Z,143030.88
2023-03-13T22:40:30.185Z,143029.63
2023-03-13T22:45:36.334Z,143015.97
2023-03-13T22:50:39.911Z,143007.28
2023-03-13T22:55:44.572Z,143007.28
